SWA1325 KCVG-KLIT
Flight info
| Callsign | SWA1325 |
|---|---|
| Flight time | 1h 26m |
| Altitude | 28000 |
| Route | CHCLL6 RAMRD |
| Aircraft | B738/M-SDE2E3FGHIRWXY/LB1 |
Departure
| Time | 2026-04-28 22:24 |
|---|---|
| Airport | Cincinnati Northern Kentucky International Airport (KCVG) |
Arrival
| Time | 2026-04-28 23:50 |
|---|---|
| Airport | Bill & Hillary Clinton National Airport/Adams Field (KLIT) |
| Time | Latitude | Longitude | Altitude | Speed | Heading |
|---|---|---|---|---|---|
| 2026-04-28 21:57 | 39.05382 | -84.65287 | 880 ft | 0 kts | 214° |
| 2026-04-28 22:17 | 39.05393 | -84.65278 | 879 ft | 5 kts | 210° |
| 2026-04-28 22:17 | 39.05416 | -84.65263 | 879 ft | 4 kts | 204° |
| 2026-04-28 22:17 | 39.05436 | -84.65249 | 878 ft | 4 kts | 259° |
| 2026-04-28 22:17 | 39.05436 | -84.65220 | 877 ft | 4 kts | 270° |
| 2026-04-28 22:18 | 39.05436 | -84.65203 | 876 ft | 1 kts | 270° |
| 2026-04-28 22:21 | 39.05436 | -84.65207 | 876 ft | 2 kts | 271° |
| 2026-04-28 22:21 | 39.05450 | -84.65227 | 877 ft | 4 kts | 345° |
| 2026-04-28 22:21 | 39.05457 | -84.65194 | 876 ft | 7 kts | 115° |
| 2026-04-28 22:21 | 39.05435 | -84.65085 | 872 ft | 16 kts | 89° |
| 2026-04-28 22:22 | 39.05436 | -84.64939 | 869 ft | 12 kts | 89° |
| 2026-04-28 22:22 | 39.05493 | -84.64879 | 867 ft | 12 kts | 0° |
| 2026-04-28 22:22 | 39.05567 | -84.64850 | 867 ft | 12 kts | 62° |
| 2026-04-28 22:22 | 39.05576 | -84.64747 | 868 ft | 12 kts | 89° |
| 2026-04-28 22:23 | 39.05538 | -84.64672 | 868 ft | 11 kts | 168° |
| 2026-04-28 22:23 | 39.05444 | -84.64669 | 867 ft | 25 kts | 181° |
| 2026-04-28 22:23 | 39.05019 | -84.64671 | 872 ft | 96 kts | 180° |
| 2026-04-28 22:23 | 39.04140 | -84.64673 | 871 ft | 155 kts | 181° |
| 2026-04-28 22:24 | 39.02946 | -84.64662 | 1236 ft | 174 kts | 183° |
| 2026-04-28 22:24 | 39.01767 | -84.64646 | 2147 ft | 169 kts | 185° |
| 2026-04-28 22:24 | 39.00579 | -84.64532 | 2815 ft | 180 kts | 173° |
| 2026-04-28 22:24 | 38.99249 | -84.64115 | 3096 ft | 212 kts | 169° |
| 2026-04-28 22:25 | 38.97741 | -84.63610 | 3290 ft | 236 kts | 169° |
| 2026-04-28 22:25 | 38.96095 | -84.63065 | 3554 ft | 255 kts | 169° |
| 2026-04-28 22:25 | 38.94328 | -84.62458 | 4024 ft | 269 kts | 168° |
| 2026-04-28 22:25 | 38.92524 | -84.61830 | 4912 ft | 267 kts | 169° |
| 2026-04-28 22:26 | 38.90727 | -84.61209 | 5738 ft | 270 kts | 169° |
| 2026-04-28 22:26 | 38.88889 | -84.60583 | 6412 ft | 277 kts | 170° |
| 2026-04-28 22:26 | 38.87019 | -84.59948 | 7198 ft | 279 kts | 170° |
| 2026-04-28 22:26 | 38.85126 | -84.59309 | 7899 ft | 284 kts | 171° |
| 2026-04-28 22:27 | 38.83182 | -84.59170 | 8577 ft | 280 kts | 197° |
| 2026-04-28 22:27 | 38.81428 | -84.60166 | 9308 ft | 276 kts | 219° |
| 2026-04-28 22:27 | 38.79934 | -84.61731 | 10008 ft | 280 kts | 224° |
| 2026-04-28 22:27 | 38.78450 | -84.63430 | 10369 ft | 297 kts | 225° |
| 2026-04-28 22:28 | 38.76860 | -84.65280 | 10518 ft | 320 kts | 225° |
| 2026-04-28 22:28 | 38.75156 | -84.67255 | 10686 ft | 341 kts | 224° |
| 2026-04-28 22:28 | 38.73345 | -84.69338 | 10926 ft | 357 kts | 224° |
| 2026-04-28 22:28 | 38.71466 | -84.71480 | 11429 ft | 364 kts | 224° |
| 2026-04-28 22:29 | 38.69560 | -84.73641 | 12100 ft | 367 kts | 224° |
| 2026-04-28 22:29 | 38.67644 | -84.75806 | 12793 ft | 369 kts | 224° |
| 2026-04-28 22:29 | 38.65709 | -84.77990 | 13444 ft | 373 kts | 224° |
| 2026-04-28 22:29 | 38.63751 | -84.80198 | 14060 ft | 378 kts | 224° |
| 2026-04-28 22:30 | 38.61774 | -84.82426 | 14721 ft | 379 kts | 224° |
| 2026-04-28 22:30 | 38.59791 | -84.84657 | 15456 ft | 380 kts | 225° |
| 2026-04-28 22:30 | 38.57806 | -84.86890 | 16165 ft | 381 kts | 225° |
| 2026-04-28 22:30 | 38.55808 | -84.89136 | 16857 ft | 383 kts | 225° |
| 2026-04-28 22:31 | 38.53801 | -84.91392 | 17512 ft | 385 kts | 225° |
| 2026-04-28 22:31 | 38.51783 | -84.93659 | 18174 ft | 388 kts | 225° |
| 2026-04-28 22:31 | 38.49752 | -84.95937 | 18768 ft | 390 kts | 225° |
| 2026-04-28 22:31 | 38.47712 | -84.98225 | 19333 ft | 391 kts | 226° |
| 2026-04-28 22:32 | 38.45682 | -85.00553 | 19900 ft | 393 kts | 227° |
| 2026-04-28 22:32 | 38.43659 | -85.02910 | 20463 ft | 395 kts | 227° |
| 2026-04-28 22:32 | 38.41629 | -85.05284 | 21014 ft | 397 kts | 227° |
| 2026-04-28 22:32 | 38.39605 | -85.07650 | 21535 ft | 399 kts | 228° |
| 2026-04-28 22:33 | 38.37549 | -85.10048 | 22041 ft | 402 kts | 228° |
| 2026-04-28 22:33 | 38.35479 | -85.12457 | 22537 ft | 404 kts | 228° |
| 2026-04-28 22:33 | 38.33392 | -85.14879 | 23028 ft | 407 kts | 228° |
| 2026-04-28 22:33 | 38.31295 | -85.17310 | 23524 ft | 409 kts | 228° |
| 2026-04-28 22:34 | 38.29186 | -85.19751 | 23933 ft | 411 kts | 228° |
| 2026-04-28 22:34 | 38.27097 | -85.22166 | 24374 ft | 411 kts | 229° |
| 2026-04-28 22:34 | 38.24980 | -85.24612 | 24837 ft | 411 kts | 229° |
| 2026-04-28 22:34 | 38.22863 | -85.27056 | 25277 ft | 411 kts | 229° |
| 2026-04-28 22:35 | 38.20743 | -85.29502 | 25729 ft | 411 kts | 229° |
| 2026-04-28 22:35 | 38.18632 | -85.31933 | 26297 ft | 408 kts | 230° |
| 2026-04-28 22:35 | 38.16547 | -85.34332 | 26981 ft | 401 kts | 230° |
| 2026-04-28 22:35 | 38.14492 | -85.36697 | 27670 ft | 396 kts | 230° |
| 2026-04-28 22:36 | 38.12453 | -85.39046 | 27958 ft | 396 kts | 231° |
| 2026-04-28 22:36 | 38.10416 | -85.41390 | 27983 ft | 395 kts | 231° |
| 2026-04-28 22:36 | 38.08398 | -85.43744 | 27976 ft | 391 kts | 233° |
| 2026-04-28 22:36 | 38.06632 | -85.46322 | 27988 ft | 385 kts | 238° |
| 2026-04-28 22:37 | 38.04995 | -85.48997 | 27994 ft | 384 kts | 239° |
| 2026-04-28 22:37 | 38.03378 | -85.51696 | 27989 ft | 384 kts | 239° |
| 2026-04-28 22:37 | 38.01760 | -85.54384 | 27988 ft | 384 kts | 239° |
| 2026-04-28 22:37 | 38.00129 | -85.57065 | 27990 ft | 384 kts | 239° |
| 2026-04-28 22:38 | 37.98486 | -85.59739 | 27982 ft | 384 kts | 239° |
| 2026-04-28 22:38 | 37.96836 | -85.62406 | 27986 ft | 384 kts | 239° |
| 2026-04-28 22:38 | 37.95182 | -85.65065 | 27991 ft | 384 kts | 239° |
| 2026-04-28 22:38 | 37.93525 | -85.67726 | 27989 ft | 385 kts | 239° |
| 2026-04-28 22:39 | 37.91866 | -85.70385 | 27980 ft | 385 kts | 239° |
| 2026-04-28 22:39 | 37.90207 | -85.73042 | 27961 ft | 384 kts | 239° |
| 2026-04-28 22:39 | 37.88551 | -85.75693 | 27969 ft | 384 kts | 239° |
| 2026-04-28 22:39 | 37.86895 | -85.78342 | 27944 ft | 384 kts | 239° |
| 2026-04-28 22:40 | 37.85241 | -85.80987 | 27958 ft | 384 kts | 238° |
| 2026-04-28 22:40 | 37.83583 | -85.83636 | 27964 ft | 384 kts | 239° |
| 2026-04-28 22:40 | 37.81923 | -85.86286 | 27959 ft | 385 kts | 239° |
| 2026-04-28 22:40 | 37.80164 | -85.88858 | 27982 ft | 392 kts | 231° |
| 2026-04-28 22:41 | 37.77926 | -85.90934 | 28001 ft | 407 kts | 219° |
| 2026-04-28 22:41 | 37.72835 | -85.94203 | 27998 ft | 412 kts | 216° |
| 2026-04-28 22:41 | 37.70262 | -85.95787 | 27998 ft | 411 kts | 216° |
| 2026-04-28 22:42 | 37.67694 | -85.97372 | 27998 ft | 410 kts | 216° |
| 2026-04-28 22:42 | 37.65139 | -85.98962 | 27998 ft | 409 kts | 216° |
| 2026-04-28 22:42 | 37.62592 | -86.00559 | 27985 ft | 408 kts | 216° |
| 2026-04-28 22:42 | 37.60054 | -86.02158 | 27995 ft | 408 kts | 217° |
| 2026-04-28 22:43 | 37.57516 | -86.03763 | 27998 ft | 408 kts | 217° |
| 2026-04-28 22:43 | 37.54984 | -86.05365 | 27995 ft | 408 kts | 217° |
| 2026-04-28 22:43 | 37.52450 | -86.06969 | 27983 ft | 407 kts | 217° |
| 2026-04-28 22:43 | 37.49918 | -86.08571 | 27990 ft | 407 kts | 217° |
| 2026-04-28 22:44 | 37.47384 | -86.10172 | 27996 ft | 408 kts | 217° |
| 2026-04-28 22:44 | 37.44846 | -86.11776 | 27980 ft | 408 kts | 217° |
| 2026-04-28 22:44 | 37.42307 | -86.13378 | 27989 ft | 409 kts | 217° |
| 2026-04-28 22:44 | 37.39764 | -86.14980 | 27963 ft | 409 kts | 216° |
| 2026-04-28 22:45 | 37.37223 | -86.16580 | 27969 ft | 409 kts | 216° |
| 2026-04-28 22:45 | 37.34676 | -86.18183 | 27977 ft | 409 kts | 216° |
| 2026-04-28 22:45 | 37.32131 | -86.19783 | 27983 ft | 409 kts | 216° |
| 2026-04-28 22:45 | 37.29584 | -86.21382 | 27978 ft | 409 kts | 216° |
| 2026-04-28 22:46 | 37.27039 | -86.22979 | 27980 ft | 409 kts | 216° |
| 2026-04-28 22:46 | 37.24497 | -86.24574 | 27986 ft | 408 kts | 216° |
| 2026-04-28 22:46 | 37.21955 | -86.26167 | 27985 ft | 408 kts | 216° |
| 2026-04-28 22:46 | 37.19417 | -86.27756 | 27980 ft | 408 kts | 216° |
| 2026-04-28 22:47 | 37.16881 | -86.29344 | 27956 ft | 408 kts | 216° |
| 2026-04-28 22:47 | 37.14343 | -86.30932 | 27986 ft | 407 kts | 215° |
| 2026-04-28 22:47 | 37.11813 | -86.32514 | 27987 ft | 407 kts | 216° |
| 2026-04-28 22:47 | 37.09279 | -86.34096 | 27990 ft | 407 kts | 216° |
| 2026-04-28 22:48 | 37.06741 | -86.35681 | 27989 ft | 408 kts | 215° |
| 2026-04-28 22:48 | 37.04200 | -86.37266 | 27991 ft | 408 kts | 215° |
| 2026-04-28 22:48 | 37.01659 | -86.38850 | 27992 ft | 409 kts | 215° |
| 2026-04-28 22:48 | 36.99111 | -86.40437 | 27993 ft | 409 kts | 215° |
| 2026-04-28 22:49 | 36.96561 | -86.42023 | 27990 ft | 410 kts | 216° |
| 2026-04-28 22:49 | 36.94216 | -86.43922 | 27980 ft | 394 kts | 230° |
| 2026-04-28 22:49 | 36.92406 | -86.46422 | 27972 ft | 385 kts | 239° |
| 2026-04-28 22:49 | 36.91066 | -86.49281 | 27996 ft | 380 kts | 248° |
| 2026-04-28 22:50 | 36.89982 | -86.52301 | 27992 ft | 382 kts | 250° |
| 2026-04-28 22:50 | 36.88939 | -86.55358 | 27983 ft | 384 kts | 250° |
| 2026-04-28 22:50 | 36.87900 | -86.58438 | 28003 ft | 385 kts | 250° |
| 2026-04-28 22:50 | 36.86855 | -86.61529 | 27993 ft | 387 kts | 250° |
| 2026-04-28 22:51 | 36.85796 | -86.64632 | 27990 ft | 389 kts | 250° |
| 2026-04-28 22:51 | 36.84728 | -86.67735 | 27988 ft | 390 kts | 250° |
| 2026-04-28 22:51 | 36.83667 | -86.70799 | 27987 ft | 390 kts | 249° |
| 2026-04-28 22:51 | 36.82570 | -86.73951 | 27984 ft | 391 kts | 249° |
| 2026-04-28 22:52 | 36.81484 | -86.77060 | 27982 ft | 390 kts | 249° |
| 2026-04-28 22:52 | 36.80398 | -86.80161 | 27979 ft | 390 kts | 249° |
| 2026-04-28 22:52 | 36.79328 | -86.83212 | 27974 ft | 389 kts | 249° |
| 2026-04-28 22:52 | 36.78246 | -86.86295 | 27967 ft | 387 kts | 249° |
| 2026-04-28 22:53 | 36.77167 | -86.89365 | 27969 ft | 386 kts | 249° |
| 2026-04-28 22:53 | 36.76090 | -86.92426 | 27979 ft | 385 kts | 249° |
| 2026-04-28 22:53 | 36.75012 | -86.95487 | 27987 ft | 385 kts | 249° |
| 2026-04-28 22:53 | 36.73937 | -86.98539 | 27978 ft | 385 kts | 249° |
| 2026-04-28 22:54 | 36.72860 | -87.01592 | 27969 ft | 385 kts | 249° |
| 2026-04-28 22:54 | 36.71781 | -87.04649 | 27972 ft | 385 kts | 249° |
| 2026-04-28 22:54 | 36.70699 | -87.07710 | 27947 ft | 386 kts | 248° |
| 2026-04-28 22:54 | 36.69616 | -87.10772 | 27959 ft | 387 kts | 248° |
| 2026-04-28 22:55 | 36.68515 | -87.13881 | 27966 ft | 388 kts | 248° |
| 2026-04-28 22:55 | 36.67439 | -87.16917 | 27970 ft | 389 kts | 248° |
| 2026-04-28 22:55 | 36.66345 | -87.19999 | 27989 ft | 390 kts | 248° |
| 2026-04-28 22:55 | 36.65603 | -87.22089 | 27985 ft | 390 kts | 248° |
| 2026-04-28 22:56 | 36.64503 | -87.25183 | 27987 ft | 391 kts | 248° |
| 2026-04-28 22:56 | 36.63042 | -87.29288 | 27983 ft | 392 kts | 248° |
| 2026-04-28 22:56 | 36.61935 | -87.32394 | 27991 ft | 393 kts | 248° |
| 2026-04-28 22:56 | 36.60827 | -87.35499 | 27991 ft | 393 kts | 248° |
| 2026-04-28 22:57 | 36.59717 | -87.38608 | 27990 ft | 393 kts | 248° |
| 2026-04-28 22:57 | 36.58999 | -87.40617 | 27990 ft | 393 kts | 248° |
| 2026-04-28 22:57 | 36.57888 | -87.43723 | 27998 ft | 393 kts | 248° |
| 2026-04-28 22:58 | 36.55665 | -87.49928 | 27984 ft | 392 kts | 248° |
| 2026-04-28 22:58 | 36.54586 | -87.52937 | 27981 ft | 392 kts | 248° |
| 2026-04-28 22:58 | 36.53475 | -87.56030 | 27992 ft | 391 kts | 248° |
| 2026-04-28 22:58 | 36.52364 | -87.59120 | 28000 ft | 391 kts | 248° |
| 2026-04-28 22:59 | 36.51253 | -87.62207 | 27994 ft | 391 kts | 248° |
| 2026-04-28 22:59 | 36.50153 | -87.65263 | 27998 ft | 391 kts | 248° |
| 2026-04-28 22:59 | 36.49057 | -87.68302 | 27989 ft | 391 kts | 248° |
| 2026-04-28 22:59 | 36.47929 | -87.71428 | 27973 ft | 391 kts | 248° |
| 2026-04-28 23:00 | 36.46833 | -87.74462 | 27940 ft | 390 kts | 249° |
| 2026-04-28 23:00 | 36.45715 | -87.77550 | 27998 ft | 386 kts | 249° |
| 2026-04-28 23:00 | 36.44632 | -87.80542 | 27989 ft | 385 kts | 249° |
| 2026-04-28 23:00 | 36.43532 | -87.83577 | 27994 ft | 385 kts | 249° |
| 2026-04-28 23:01 | 36.42431 | -87.86614 | 27986 ft | 386 kts | 249° |
| 2026-04-28 23:01 | 36.41330 | -87.89649 | 27988 ft | 386 kts | 249° |
| 2026-04-28 23:01 | 36.40228 | -87.92683 | 27986 ft | 386 kts | 249° |
| 2026-04-28 23:01 | 36.39122 | -87.95722 | 27987 ft | 386 kts | 249° |
| 2026-04-28 23:02 | 36.38017 | -87.98757 | 27985 ft | 386 kts | 249° |
| 2026-04-28 23:02 | 36.36931 | -88.01739 | 27983 ft | 386 kts | 249° |
| 2026-04-28 23:02 | 36.35822 | -88.04777 | 27983 ft | 387 kts | 249° |
| 2026-04-28 23:02 | 36.34712 | -88.07817 | 27987 ft | 387 kts | 249° |
| 2026-04-28 23:03 | 36.33602 | -88.10855 | 27957 ft | 387 kts | 248° |
| 2026-04-28 23:03 | 36.32495 | -88.13881 | 27953 ft | 388 kts | 248° |
| 2026-04-28 23:03 | 36.31380 | -88.16926 | 27958 ft | 389 kts | 248° |
| 2026-04-28 23:03 | 36.30258 | -88.19987 | 27955 ft | 390 kts | 248° |
| 2026-04-28 23:04 | 36.29134 | -88.23051 | 27951 ft | 391 kts | 248° |
| 2026-04-28 23:04 | 36.26874 | -88.29201 | 27948 ft | 393 kts | 248° |
| 2026-04-28 23:04 | 36.25740 | -88.32281 | 27945 ft | 393 kts | 248° |
| 2026-04-28 23:05 | 36.24603 | -88.35367 | 27944 ft | 394 kts | 248° |
| 2026-04-28 23:05 | 36.23465 | -88.38453 | 27938 ft | 393 kts | 248° |
| 2026-04-28 23:05 | 36.22335 | -88.41510 | 27939 ft | 387 kts | 248° |
| 2026-04-28 23:05 | 36.21224 | -88.44512 | 28002 ft | 382 kts | 248° |
| 2026-04-28 23:06 | 36.19002 | -88.50522 | 28007 ft | 386 kts | 248° |
| 2026-04-28 23:06 | 36.16753 | -88.56591 | 28018 ft | 390 kts | 248° |
| 2026-04-28 23:07 | 36.14486 | -88.62695 | 28009 ft | 392 kts | 248° |
| 2026-04-28 23:07 | 36.13346 | -88.65760 | 27999 ft | 392 kts | 248° |
| 2026-04-28 23:07 | 36.12248 | -88.68706 | 27996 ft | 392 kts | 248° |
| 2026-04-28 23:08 | 36.11119 | -88.71734 | 27988 ft | 391 kts | 248° |
| 2026-04-28 23:08 | 36.09981 | -88.74785 | 27982 ft | 390 kts | 248° |
| 2026-04-28 23:08 | 36.08855 | -88.77800 | 27974 ft | 389 kts | 248° |
| 2026-04-28 23:08 | 36.07722 | -88.80828 | 27970 ft | 387 kts | 248° |
| 2026-04-28 23:09 | 36.06594 | -88.83844 | 27964 ft | 386 kts | 248° |
| 2026-04-28 23:09 | 36.05466 | -88.86857 | 27946 ft | 386 kts | 247° |
| 2026-04-28 23:09 | 36.04336 | -88.89872 | 27940 ft | 387 kts | 247° |
| 2026-04-28 23:09 | 36.03213 | -88.92864 | 27950 ft | 388 kts | 247° |
| 2026-04-28 23:10 | 36.02076 | -88.95894 | 27950 ft | 390 kts | 247° |
| 2026-04-28 23:10 | 36.00931 | -88.98939 | 27951 ft | 391 kts | 247° |
| 2026-04-28 23:10 | 35.99783 | -89.01991 | 27948 ft | 393 kts | 247° |
| 2026-04-28 23:10 | 35.98630 | -89.05052 | 27948 ft | 394 kts | 247° |
| 2026-04-28 23:11 | 35.97521 | -89.07994 | 27941 ft | 395 kts | 247° |
| 2026-04-28 23:11 | 35.96427 | -89.10892 | 27940 ft | 395 kts | 247° |
| 2026-04-28 23:11 | 35.95272 | -89.13950 | 27937 ft | 396 kts | 247° |
| 2026-04-28 23:11 | 35.94118 | -89.17002 | 27937 ft | 395 kts | 247° |
| 2026-04-28 23:12 | 35.92953 | -89.20078 | 27937 ft | 395 kts | 247° |
| 2026-04-28 23:12 | 35.91849 | -89.22991 | 27936 ft | 394 kts | 247° |
| 2026-04-28 23:12 | 35.90718 | -89.25975 | 27942 ft | 393 kts | 246° |
| 2026-04-28 23:12 | 35.89585 | -89.28961 | 27935 ft | 392 kts | 246° |
| 2026-04-28 23:13 | 35.88429 | -89.32003 | 27933 ft | 392 kts | 246° |
| 2026-04-28 23:13 | 35.87314 | -89.34935 | 27937 ft | 391 kts | 246° |
| 2026-04-28 23:13 | 35.86218 | -89.37814 | 27935 ft | 390 kts | 246° |
| 2026-04-28 23:13 | 35.85102 | -89.40744 | 27935 ft | 390 kts | 246° |
| 2026-04-28 23:14 | 35.83986 | -89.43673 | 27941 ft | 389 kts | 246° |
| 2026-04-28 23:14 | 35.82862 | -89.46616 | 27940 ft | 389 kts | 246° |
| 2026-04-28 23:14 | 35.81734 | -89.49570 | 27941 ft | 389 kts | 246° |
| 2026-04-28 23:14 | 35.80580 | -89.52590 | 27941 ft | 390 kts | 246° |
| 2026-04-28 23:15 | 35.79466 | -89.55501 | 27934 ft | 390 kts | 246° |
| 2026-04-28 23:15 | 35.78313 | -89.58511 | 27939 ft | 390 kts | 246° |
| 2026-04-28 23:15 | 35.77239 | -89.61311 | 27939 ft | 391 kts | 246° |
| 2026-04-28 23:15 | 35.76092 | -89.64300 | 27935 ft | 391 kts | 246° |
| 2026-04-28 23:16 | 35.75010 | -89.67117 | 27906 ft | 391 kts | 246° |
| 2026-04-28 23:16 | 35.73880 | -89.70056 | 27930 ft | 391 kts | 246° |
| 2026-04-28 23:16 | 35.72743 | -89.73013 | 27927 ft | 391 kts | 246° |
| 2026-04-28 23:16 | 35.71588 | -89.76010 | 27939 ft | 391 kts | 246° |
| 2026-04-28 23:17 | 35.70495 | -89.78845 | 27939 ft | 392 kts | 246° |
| 2026-04-28 23:17 | 35.69372 | -89.81756 | 27936 ft | 392 kts | 246° |
| 2026-04-28 23:17 | 35.68225 | -89.84727 | 27937 ft | 392 kts | 246° |
| 2026-04-28 23:17 | 35.67087 | -89.87671 | 27937 ft | 392 kts | 246° |
| 2026-04-28 23:18 | 35.65961 | -89.90581 | 27944 ft | 392 kts | 246° |
| 2026-04-28 23:18 | 35.64871 | -89.93396 | 27921 ft | 392 kts | 246° |
| 2026-04-28 23:18 | 35.63713 | -89.96380 | 27628 ft | 382 kts | 246° |
| 2026-04-28 23:18 | 35.62587 | -89.99280 | 27376 ft | 371 kts | 246° |
| 2026-04-28 23:19 | 35.61501 | -90.02072 | 27098 ft | 365 kts | 248° |
| 2026-04-28 23:19 | 35.60466 | -90.04732 | 26851 ft | 357 kts | 248° |
| 2026-04-28 23:19 | 35.59437 | -90.07376 | 26606 ft | 350 kts | 248° |
| 2026-04-28 23:19 | 35.58420 | -90.09992 | 26384 ft | 355 kts | 248° |
| 2026-04-28 23:20 | 35.57402 | -90.12613 | 26167 ft | 363 kts | 247° |
| 2026-04-28 23:20 | 35.56396 | -90.15200 | 25947 ft | 365 kts | 247° |
| 2026-04-28 23:20 | 35.55368 | -90.17834 | 25722 ft | 362 kts | 247° |
| 2026-04-28 23:20 | 35.54343 | -90.20458 | 25494 ft | 360 kts | 247° |
| 2026-04-28 23:21 | 35.53312 | -90.23093 | 25271 ft | 358 kts | 247° |
| 2026-04-28 23:21 | 35.52291 | -90.25704 | 25050 ft | 357 kts | 247° |
| 2026-04-28 23:21 | 35.51245 | -90.28374 | 24824 ft | 356 kts | 247° |
| 2026-04-28 23:21 | 35.50238 | -90.30944 | 24612 ft | 355 kts | 247° |
| 2026-04-28 23:22 | 35.49257 | -90.33448 | 24368 ft | 355 kts | 246° |
| 2026-04-28 23:22 | 35.48201 | -90.36138 | 24153 ft | 356 kts | 246° |
| 2026-04-28 23:22 | 35.47175 | -90.38753 | 23929 ft | 357 kts | 246° |
| 2026-04-28 23:22 | 35.46124 | -90.41429 | 23712 ft | 359 kts | 246° |
| 2026-04-28 23:23 | 35.45193 | -90.43796 | 23523 ft | 360 kts | 246° |
| 2026-04-28 23:23 | 35.44298 | -90.46069 | 23310 ft | 361 kts | 246° |
| 2026-04-28 23:23 | 35.43326 | -90.48537 | 23077 ft | 362 kts | 246° |
| 2026-04-28 23:23 | 35.42290 | -90.51164 | 22833 ft | 362 kts | 246° |
| 2026-04-28 23:24 | 35.41219 | -90.53879 | 22574 ft | 361 kts | 246° |
| 2026-04-28 23:24 | 35.40125 | -90.56648 | 22307 ft | 360 kts | 245° |
| 2026-04-28 23:24 | 35.39041 | -90.59389 | 22060 ft | 358 kts | 246° |
| 2026-04-28 23:24 | 35.37960 | -90.62121 | 21804 ft | 356 kts | 246° |
| 2026-04-28 23:25 | 35.36960 | -90.64648 | 21569 ft | 354 kts | 245° |
| 2026-04-28 23:25 | 35.35902 | -90.67317 | 21322 ft | 352 kts | 246° |
| 2026-04-28 23:25 | 35.34881 | -90.69892 | 21083 ft | 350 kts | 246° |
| 2026-04-28 23:25 | 35.33872 | -90.72436 | 20844 ft | 348 kts | 245° |
| 2026-04-28 23:26 | 35.32825 | -90.75070 | 20606 ft | 347 kts | 246° |
| 2026-04-28 23:26 | 35.31792 | -90.77670 | 20377 ft | 345 kts | 245° |
| 2026-04-28 23:26 | 35.30794 | -90.80180 | 20143 ft | 344 kts | 245° |
| 2026-04-28 23:26 | 35.29783 | -90.82719 | 19916 ft | 343 kts | 245° |
| 2026-04-28 23:27 | 35.28790 | -90.85212 | 19693 ft | 342 kts | 245° |
| 2026-04-28 23:27 | 35.27818 | -90.87651 | 19472 ft | 341 kts | 245° |
| 2026-04-28 23:27 | 35.26871 | -90.90026 | 19261 ft | 340 kts | 245° |
| 2026-04-28 23:27 | 35.25928 | -90.92388 | 19061 ft | 338 kts | 245° |
| 2026-04-28 23:28 | 35.25030 | -90.94636 | 18978 ft | 337 kts | 245° |
| 2026-04-28 23:28 | 35.24093 | -90.96978 | 18914 ft | 336 kts | 245° |
| 2026-04-28 23:28 | 35.23176 | -90.99270 | 18922 ft | 331 kts | 245° |
| 2026-04-28 23:28 | 35.22174 | -91.01771 | 18765 ft | 325 kts | 245° |
| 2026-04-28 23:29 | 35.21231 | -91.04124 | 18406 ft | 324 kts | 245° |
| 2026-04-28 23:29 | 35.20256 | -91.06558 | 17874 ft | 325 kts | 245° |
| 2026-04-28 23:29 | 35.19425 | -91.08646 | 17443 ft | 324 kts | 247° |
| 2026-04-28 23:29 | 35.18776 | -91.10780 | 17100 ft | 321 kts | 253° |
| 2026-04-28 23:30 | 35.18230 | -91.12986 | 16761 ft | 318 kts | 254° |
| 2026-04-28 23:30 | 35.17689 | -91.15233 | 16432 ft | 315 kts | 254° |
| 2026-04-28 23:30 | 35.17189 | -91.17319 | 16079 ft | 314 kts | 254° |
| 2026-04-28 23:30 | 35.16642 | -91.19586 | 15707 ft | 312 kts | 253° |
| 2026-04-28 23:31 | 35.16113 | -91.21761 | 15365 ft | 310 kts | 253° |
| 2026-04-28 23:31 | 35.15573 | -91.23965 | 15016 ft | 308 kts | 253° |
| 2026-04-28 23:31 | 35.15082 | -91.25958 | 14699 ft | 306 kts | 253° |
| 2026-04-28 23:31 | 35.14508 | -91.28276 | 14339 ft | 304 kts | 253° |
| 2026-04-28 23:32 | 35.13954 | -91.30507 | 13993 ft | 302 kts | 253° |
| 2026-04-28 23:32 | 35.13400 | -91.32732 | 13640 ft | 300 kts | 253° |
| 2026-04-28 23:32 | 35.12930 | -91.34615 | 13301 ft | 299 kts | 253° |
| 2026-04-28 23:32 | 35.12432 | -91.36606 | 12964 ft | 297 kts | 253° |
| 2026-04-28 23:33 | 35.11955 | -91.38514 | 12630 ft | 296 kts | 253° |
| 2026-04-28 23:33 | 35.11493 | -91.40359 | 12304 ft | 294 kts | 253° |
| 2026-04-28 23:33 | 35.11040 | -91.42163 | 12000 ft | 293 kts | 253° |
| 2026-04-28 23:33 | 35.10581 | -91.43995 | 11681 ft | 292 kts | 253° |
| 2026-04-28 23:34 | 35.10126 | -91.45807 | 11367 ft | 291 kts | 253° |
| 2026-04-28 23:34 | 35.09690 | -91.47543 | 11223 ft | 285 kts | 253° |
| 2026-04-28 23:34 | 35.09255 | -91.49271 | 11165 ft | 273 kts | 253° |
| 2026-04-28 23:34 | 35.08756 | -91.51251 | 11067 ft | 259 kts | 253° |
| 2026-04-28 23:35 | 35.08360 | -91.52824 | 10989 ft | 247 kts | 253° |
| 2026-04-28 23:35 | 35.07984 | -91.54315 | 10821 ft | 241 kts | 253° |
| 2026-04-28 23:35 | 35.07617 | -91.55771 | 10529 ft | 240 kts | 253° |
| 2026-04-28 23:35 | 35.07228 | -91.57313 | 10216 ft | 241 kts | 253° |
| 2026-04-28 23:36 | 35.06841 | -91.58847 | 9990 ft | 241 kts | 253° |
| 2026-04-28 23:36 | 35.06472 | -91.60310 | 9802 ft | 239 kts | 253° |
| 2026-04-28 23:36 | 35.06098 | -91.61789 | 9578 ft | 238 kts | 253° |
| 2026-04-28 23:36 | 35.05733 | -91.63236 | 9329 ft | 238 kts | 253° |
| 2026-04-28 23:37 | 35.05343 | -91.64776 | 9078 ft | 238 kts | 253° |
| 2026-04-28 23:37 | 35.04892 | -91.66557 | 8821 ft | 237 kts | 253° |
| 2026-04-28 23:37 | 35.04508 | -91.68072 | 8602 ft | 236 kts | 253° |
| 2026-04-28 23:37 | 35.04133 | -91.69551 | 8410 ft | 234 kts | 253° |
| 2026-04-28 23:38 | 35.03771 | -91.70981 | 8211 ft | 232 kts | 253° |
| 2026-04-28 23:38 | 35.03416 | -91.72379 | 8040 ft | 231 kts | 253° |
| 2026-04-28 23:38 | 35.03062 | -91.73774 | 7852 ft | 230 kts | 253° |
| 2026-04-28 23:38 | 35.02683 | -91.75267 | 7666 ft | 229 kts | 253° |
| 2026-04-28 23:39 | 35.02282 | -91.76844 | 7446 ft | 228 kts | 253° |
| 2026-04-28 23:39 | 35.01902 | -91.78340 | 7252 ft | 226 kts | 253° |
| 2026-04-28 23:39 | 35.01504 | -91.79901 | 7044 ft | 225 kts | 253° |
| 2026-04-28 23:39 | 35.01157 | -91.81264 | 6871 ft | 224 kts | 253° |
| 2026-04-28 23:40 | 35.00925 | -91.82175 | 6763 ft | 223 kts | 253° |
| 2026-04-28 23:40 | 35.00457 | -91.84012 | 6511 ft | 222 kts | 253° |
| 2026-04-28 23:40 | 35.00022 | -91.85718 | 6282 ft | 221 kts | 253° |
| 2026-04-28 23:40 | 34.99717 | -91.86913 | 6119 ft | 220 kts | 253° |
| 2026-04-28 23:41 | 34.99271 | -91.88662 | 5873 ft | 218 kts | 253° |
| 2026-04-28 23:41 | 34.98898 | -91.90124 | 5676 ft | 217 kts | 253° |
| 2026-04-28 23:41 | 34.98533 | -91.91553 | 5493 ft | 217 kts | 253° |
| 2026-04-28 23:41 | 34.98156 | -91.93028 | 5292 ft | 217 kts | 253° |
| 2026-04-28 23:42 | 34.97800 | -91.94419 | 5113 ft | 219 kts | 253° |
| 2026-04-28 23:42 | 34.97462 | -91.95738 | 5028 ft | 213 kts | 253° |
| 2026-04-28 23:42 | 34.97136 | -91.97009 | 4997 ft | 206 kts | 253° |
| 2026-04-28 23:42 | 34.96811 | -91.98274 | 4988 ft | 198 kts | 253° |
| 2026-04-28 23:43 | 34.96411 | -91.99833 | 4977 ft | 191 kts | 252° |
| 2026-04-28 23:43 | 34.95728 | -92.01238 | 4778 ft | 200 kts | 224° |
| 2026-04-28 23:43 | 34.94518 | -92.02077 | 4635 ft | 202 kts | 204° |
| 2026-04-28 23:43 | 34.93119 | -92.02254 | 4490 ft | 199 kts | 189° |
| 2026-04-28 23:44 | 34.91785 | -92.02288 | 4472 ft | 188 kts | 191° |
| 2026-04-28 23:44 | 34.90485 | -92.02331 | 4457 ft | 186 kts | 191° |
| 2026-04-28 23:44 | 34.89246 | -92.02660 | 4333 ft | 176 kts | 212° |
| 2026-04-28 23:44 | 34.88186 | -92.03413 | 4161 ft | 174 kts | 227° |
| 2026-04-28 23:45 | 34.87425 | -92.04417 | 3979 ft | 168 kts | 230° |
| 2026-04-28 23:45 | 34.86703 | -92.05322 | 3794 ft | 162 kts | 229° |
| 2026-04-28 23:45 | 34.85938 | -92.06282 | 3592 ft | 157 kts | 229° |
| 2026-04-28 23:45 | 34.85196 | -92.07224 | 3387 ft | 152 kts | 230° |
| 2026-04-28 23:46 | 34.84476 | -92.08144 | 3193 ft | 148 kts | 230° |
| 2026-04-28 23:46 | 34.83764 | -92.09056 | 3014 ft | 149 kts | 229° |
| 2026-04-28 23:46 | 34.83047 | -92.09974 | 2809 ft | 150 kts | 229° |
| 2026-04-28 23:46 | 34.82321 | -92.10904 | 2617 ft | 152 kts | 229° |
| 2026-04-28 23:47 | 34.81605 | -92.11821 | 2424 ft | 149 kts | 229° |
| 2026-04-28 23:47 | 34.80882 | -92.12747 | 2255 ft | 149 kts | 229° |
| 2026-04-28 23:47 | 34.80180 | -92.13646 | 2023 ft | 142 kts | 227° |
| 2026-04-28 23:47 | 34.79520 | -92.14492 | 1885 ft | 137 kts | 227° |
| 2026-04-28 23:48 | 34.78850 | -92.15351 | 1700 ft | 142 kts | 226° |
| 2026-04-28 23:48 | 34.78165 | -92.16228 | 1495 ft | 144 kts | 227° |
| 2026-04-28 23:48 | 34.77483 | -92.17102 | 1322 ft | 144 kts | 228° |
| 2026-04-28 23:48 | 34.76799 | -92.17979 | 1134 ft | 142 kts | 227° |
| 2026-04-28 23:49 | 34.76100 | -92.18877 | 949 ft | 146 kts | 226° |
| 2026-04-28 23:49 | 34.75409 | -92.19760 | 720 ft | 147 kts | 226° |
| 2026-04-28 23:49 | 34.74720 | -92.20660 | 531 ft | 144 kts | 225° |
| 2026-04-28 23:49 | 34.74027 | -92.21544 | 354 ft | 145 kts | 226° |
| 2026-04-28 23:50 | 34.73323 | -92.22432 | 267 ft | 142 kts | 226° |
| 2026-04-28 23:50 | 34.72786 | -92.23122 | 263 ft | 79 kts | 226° |
| 2026-04-28 23:50 | 34.72537 | -92.23438 | 265 ft | 42 kts | 226° |
| 2026-04-28 23:50 | 34.72374 | -92.23646 | 262 ft | 20 kts | 226° |
| 2026-04-28 23:51 | 34.72297 | -92.23689 | 263 ft | 12 kts | 157° |
| 2026-04-28 23:51 | 34.72262 | -92.23606 | 265 ft | 12 kts | 69° |
| 2026-04-28 23:51 | 34.72315 | -92.23529 | 265 ft | 12 kts | 46° |
| 2026-04-28 23:51 | 34.72379 | -92.23448 | 266 ft | 15 kts | 46° |
| 2026-04-28 23:52 | 34.72464 | -92.23340 | 266 ft | 20 kts | 46° |
| 2026-04-28 23:52 | 34.72564 | -92.23212 | 266 ft | 21 kts | 46° |
| 2026-04-28 23:52 | 34.72660 | -92.23089 | 266 ft | 20 kts | 46° |
| 2026-04-28 23:52 | 34.72757 | -92.22966 | 266 ft | 19 kts | 46° |
| 2026-04-28 23:53 | 34.72847 | -92.22850 | 266 ft | 19 kts | 46° |
| 2026-04-28 23:53 | 34.72936 | -92.22737 | 265 ft | 18 kts | 46° |
| 2026-04-28 23:53 | 34.73022 | -92.22627 | 266 ft | 18 kts | 46° |
| 2026-04-28 23:53 | 34.73103 | -92.22523 | 266 ft | 12 kts | 46° |
| 2026-04-28 23:54 | 34.73147 | -92.22463 | 266 ft | 9 kts | 63° |
| 2026-04-28 23:54 | 34.73137 | -92.22389 | 266 ft | 9 kts | 111° |
| 2026-04-28 23:54 | 34.73113 | -92.22314 | 266 ft | 10 kts | 110° |
| 2026-04-28 23:54 | 34.73089 | -92.22235 | 266 ft | 10 kts | 111° |
| 2026-04-28 23:55 | 34.73068 | -92.22158 | 266 ft | 10 kts | 102° |
| 2026-04-28 23:55 | 34.73048 | -92.22085 | 266 ft | 7 kts | 113° |
| 2026-04-28 23:55 | 34.73031 | -92.22036 | 266 ft | 4 kts | 112° |
| 2026-04-28 23:55 | 34.73029 | -92.22028 | 266 ft | 0 kts | 112° |